Time;durP1;ratioP1;P1;durP2;ratioP2;P2;SDS_P1;SDS_P2;PMS_P1;PMS_P2;Temp;Humidity;BMP_temperature;BMP_pressure;BME280_temperature;BME280_humidity;BME280_pressure;Samples;Min_cycle;Max_cycle;Signal;HPM_P1;HPM_P2
2022/05/26 00:01:16;;;;;;;1.88;1.20;;;16.00;99.90;;;;;;5135831;27;20799;-88
2022/05/26 00:03:44;;;;;;;2.53;0.80;;;16.00;99.90;;;;;;5136729;27;20627;-88
2022/05/26 00:06:14;;;;;;;2.97;0.73;;;16.00;99.90;;;;;;5136731;27;20016;-88
2022/05/26 00:08:40;;;;;;;1.27;0.70;;;15.90;99.90;;;;;;5118348;27;20479;-88
2022/05/26 00:11:08;;;;;;;8.70;0.70;;;15.90;99.90;;;;;;5118388;27;20030;-90
2022/05/26 00:13:35;;;;;;;2.20;0.73;;;15.90;99.90;;;;;;5136488;27;20016;-89
2022/05/26 00:16:01;;;;;;;2.30;0.70;;;15.90;99.90;;;;;;5117418;27;20030;-89
2022/05/26 00:18:27;;;;;;;1.00;0.55;;;15.90;99.90;;;;;;5118349;27;20110;-89
2022/05/26 00:20:52;;;;;;;6.53;2.15;;;15.90;99.90;;;;;;5117883;27;20084;-88
2022/05/26 00:23:18;;;;;;;3.45;0.52;;;15.90;99.90;;;;;;5117618;27;20020;-88
2022/05/26 00:25:44;;;;;;;2.67;0.50;;;15.90;99.90;;;;;;5117856;27;20020;-88
2022/05/26 00:28:10;;;;;;;1.17;0.50;;;15.90;99.90;;;;;;5136056;27;20105;-89
2022/05/26 00:30:37;;;;;;;1.27;0.52;;;16.00;99.90;;;;;;5136148;27;20027;-89
2022/05/26 00:33:05;;;;;;;3.13;0.57;;;15.90;99.90;;;;;;5136351;27;20570;-89
2022/05/26 00:35:34;;;;;;;1.50;0.75;;;15.90;99.90;;;;;;5136008;27;20019;-89
2022/05/26 00:38:02;;;;;;;3.70;0.50;;;15.90;99.90;;;;;;5135728;27;20065;-88
2022/05/26 00:40:27;;;;;;;2.50;0.47;;;15.90;99.90;;;;;;5134821;27;20034;-88
2022/05/26 00:42:53;;;;;;;1.00;0.50;;;15.90;99.90;;;;;;5135292;27;20099;-88
2022/05/26 00:45:19;;;;;;;1.10;0.60;;;15.90;99.90;;;;;;5135266;27;20028;-88
2022/05/26 00:47:45;;;;;;;;;;;15.80;99.90;;;;;;5117653;27;20444;-87
2022/05/26 00:50:26;;;;;;;1.23;0.50;;;15.70;99.90;;;;;;5116773;27;19926;-87
2022/05/26 00:52:59;;;;;;;0.85;0.50;;;15.80;99.90;;;;;;5117059;27;20043;-87
2022/05/26 00:55:40;;;;;;;0.90;0.40;;;15.70;99.90;;;;;;5134970;27;20489;-87
2022/05/26 00:58:24;;;;;;;0.88;0.47;;;15.70;99.90;;;;;;5135170;27;20023;-90
2022/05/26 01:00:50;;;;;;;1.27;0.50;;;15.70;99.90;;;;;;5135007;27;20027;-88
2022/05/26 01:03:19;;;;;;;1.83;0.40;;;15.80;99.90;;;;;;5116685;27;20031;-88
2022/05/26 01:05:58;;;;;;;2.55;0.40;;;15.80;99.90;;;;;;5116628;27;20031;-87
2022/05/26 01:08:46;;;;;;;1.42;0.52;;;15.90;99.90;;;;;;5134654;27;20102;-87
2022/05/26 01:11:11;;;;;;;0.75;0.30;;;15.80;99.90;;;;;;5134927;27;20753;-88
2022/05/26 01:13:43;;;;;;;2.85;0.60;;;15.80;99.90;;;;;;5115496;27;20034;-88
2022/05/26 01:16:35;;;;;;;0.63;0.40;;;15.80;99.90;;;;;;5113805;27;20030;-88
2022/05/26 01:19:13;;;;;;;11.13;0.30;;;15.80;99.90;;;;;;5134666;27;20031;-88
2022/05/26 01:21:51;;;;;;;1.45;0.40;;;15.70;99.90;;;;;;5135286;27;20467;-89
2022/05/26 01:24:47;;;;;;;2.30;0.40;;;15.70;99.90;;;;;;5134710;27;20091;-88
2022/05/26 01:27:35;;;;;;;1.35;0.40;;;15.70;99.90;;;;;;5134577;27;20068;-88
2022/05/26 01:30:18;;;;;;;1.55;0.40;;;15.60;99.90;;;;;;5134340;27;20058;-88
2022/05/26 01:33:11;;;;;;;3.85;0.73;;;15.60;99.90;;;;;;5134178;27;20037;-86
2022/05/26 01:35:52;;;;;;;0.95;0.55;;;15.50;99.90;;;;;;5134024;27;20031;-86
2022/05/26 01:38:30;;;;;;;2.75;0.47;;;15.60;99.90;;;;;;5134643;27;20431;-89
2022/05/26 01:41:05;;;;;;;6.95;0.57;;;15.70;99.90;;;;;;5134454;27;20079;-90
2022/05/26 01:43:46;;;;;;;2.22;0.47;;;15.70;99.90;;;;;;5134689;27;20034;-89
2022/05/26 01:46:29;;;;;;;1.55;0.40;;;15.70;99.90;;;;;;5134138;27;20020;-89
2022/05/26 01:49:22;;;;;;;2.42;0.40;;;15.80;99.90;;;;;;5134347;27;20034;-89
2022/05/26 01:52:14;;;;;;;1.52;0.35;;;15.80;99.90;;;;;;5116143;27;20031;-88
2022/05/26 01:55:04;;;;;;;0.77;0.38;;;15.70;99.90;;;;;;5134189;27;20019;-89
2022/05/26 01:57:48;;;;;;;0.63;0.40;;;15.70;99.90;;;;;;5134577;27;20087;-88
2022/05/26 02:00:18;;;;;;;1.15;0.40;;;15.60;99.90;;;;;;5116052;27;20019;-90
2022/05/26 02:03:16;;;;;;;6.13;0.40;;;15.60;99.90;;;;;;5134737;27;20065;-90
2022/05/26 02:05:55;;;;;;;8.07;0.40;;;15.60;99.90;;;;;;5116053;27;20019;-88
2022/05/26 02:08:26;;;;;;;3.72;0.30;;;15.50;99.90;;;;;;5133822;27;20045;-87
2022/05/26 02:11:02;;;;;;;2.42;0.40;;;15.50;99.90;;;;;;5114754;27;20537;-86
2022/05/26 02:13:41;;;;;;;3.55;0.73;;;15.40;99.90;;;;;;5133240;27;20020;-87
2022/05/26 02:16:24;;;;;;;1.02;0.30;;;15.30;99.90;;;;;;5114226;27;20039;-86
2022/05/26 02:19:11;;;;;;;1.70;0.30;;;15.20;99.90;;;;;;5132747;27;20065;-87
2022/05/26 02:21:49;;;;;;;2.25;0.40;;;15.20;99.90;;;;;;5114522;27;20062;-87
2022/05/26 02:24:39;;;;;;;10.18;0.80;;;15.10;99.90;;;;;;5132926;27;20031;-86
2022/05/26 02:27:06;;;;;;;1.35;0.22;;;15.10;99.90;;;;;;5114680;27;20377;-88
2022/05/26 02:32:22;;;;;;;1.55;0.30;;;15.10;99.90;;;;;;5132782;27;20042;-85
2022/05/26 02:34:50;;;;;;;2.85;0.50;;;15.10;99.90;;;;;;5133874;27;20033;-87
2022/05/26 02:37:18;;;;;;;1.17;0.30;;;15.00;99.90;;;;;;5133807;27;20057;-88
2022/05/26 02:39:44;;;;;;;0.60;0.38;;;14.90;99.90;;;;;;5115152;27;20495;-89
2022/05/26 02:42:10;;;;;;;;;;;14.80;99.90;;;;;;5133854;27;20126;-88
2022/05/26 02:44:37;;;;;;;3.63;1.43;;;14.80;99.90;;;;;;5133560;27;19918;-89
2022/05/26 02:47:24;;;;;;;4.82;0.40;;;14.80;99.90;;;;;;5133915;28;20294;-88
2022/05/26 02:49:53;;;;;;;;;;;14.80;99.90;;;;;;5133925;28;20027;-86
2022/05/26 02:52:33;;;;;;;4.22;0.55;;;14.80;99.90;;;;;;5133665;28;19938;-90
2022/05/26 02:55:17;;;;;;;2.00;0.50;;;14.80;99.90;;;;;;5115704;28;20030;-89
2022/05/26 02:58:01;;;;;;;1.13;0.40;;;14.90;99.90;;;;;;5133383;28;20430;-88
2022/05/26 03:00:50;;;;;;;1.40;0.60;;;14.80;99.90;;;;;;5133461;28;20098;-88
2022/05/26 03:03:26;;;;;;;1.48;0.52;;;14.90;99.90;;;;;;5114165;28;20450;-89
2022/05/26 03:06:16;;;;;;;3.95;0.30;;;14.80;99.90;;;;;;5133244;28;20047;-88
2022/05/26 03:08:44;;;;;;;1.05;0.45;;;14.80;99.90;;;;;;5114887;28;20031;-88
2022/05/26 03:11:15;;;;;;;3.05;0.40;;;14.80;99.90;;;;;;5114665;28;20027;-88
2022/05/26 03:13:41;;;;;;;3.40;0.43;;;14.80;99.90;;;;;;5133123;27;20028;-88
2022/05/26 03:16:07;;;;;;;;;;;14.70;99.90;;;;;;5133346;27;20034;-88
2022/05/26 03:18:33;;;;;;;0.60;0.35;;;14.70;99.90;;;;;;5115085;28;19903;-89
2022/05/26 03:20:59;;;;;;;;;;;14.70;99.90;;;;;;5115888;28;20023;-87
2022/05/26 03:23:26;;;;;;;2.70;0.60;;;14.70;99.90;;;;;;5133252;28;19994;-88
2022/05/26 03:25:57;;;;;;;0.88;0.50;;;14.70;99.90;;;;;;5133208;28;20065;-88
2022/05/26 03:28:27;;;;;;;0.82;0.30;;;14.60;99.90;;;;;;5133478;28;20045;-88
2022/05/26 03:30:53;;;;;;;5.90;0.50;;;14.60;99.90;;;;;;5114926;28;20023;-88
2022/05/26 03:33:19;;;;;;;;;;;14.60;99.90;;;;;;5133848;28;20042;-90
2022/05/26 03:41:18;;;;;;;8.10;0.50;;;14.50;99.90;;;;;;5131835;28;20046;-87
2022/05/26 03:43:46;;;;;;;1.83;0.30;;;14.50;99.90;;;;;;5132004;28;20031;-87
2022/05/26 03:46:13;;;;;;;5.30;0.40;;;14.60;99.90;;;;;;5113612;28;20440;-87
2022/05/26 03:48:40;;;;;;;0.73;0.40;;;14.50;99.90;;;;;;5132359;28;20045;-87
2022/05/26 03:51:06;;;;;;;1.67;0.50;;;14.70;99.90;;;;;;5133919;27;20027;-87
2022/05/26 03:53:33;;;;;;;1.13;0.30;;;14.90;99.90;;;;;;5135741;27;20027;-86
2022/05/26 03:56:00;;;;;;;0.77;0.32;;;15.30;99.90;;;;;;5117414;27;20033;-87
2022/05/26 03:58:25;;;;;;;0.80;0.30;;;15.60;99.90;;;;;;5136234;27;20023;-85
2022/05/26 04:00:51;;;;;;;;;;;15.90;99.90;;;;;;5136370;27;20060;-87
2022/05/26 04:03:17;;;;;;;3.72;0.40;;;16.10;99.90;;;;;;5136471;27;20402;-87
2022/05/26 04:05:43;;;;;;;1.23;0.43;;;16.50;99.90;;;;;;5133852;27;20476;-88
2022/05/26 04:08:08;;;;;;;5.68;0.50;;;16.70;99.90;;;;;;5133440;27;20023;-88
2022/05/26 04:10:34;;;;;;;0.68;0.30;;;16.90;98.10;;;;;;5136400;27;20050;-86
2022/05/26 04:13:00;;;;;;;3.83;0.40;;;16.90;94.50;;;;;;5118188;27;20033;-87
2022/05/26 04:15:25;;;;;;;3.58;0.20;;;17.00;93.10;;;;;;5136764;27;20030;-87
2022/05/26 04:17:51;;;;;;;1.80;0.25;;;17.00;91.70;;;;;;5117459;27;20020;-87
2022/05/26 04:20:20;;;;;;;1.48;0.20;;;17.10;90.90;;;;;;5117726;27;20091;-86
2022/05/26 04:22:46;;;;;;;1.65;0.30;;;17.30;90.60;;;;;;5135656;27;20483;-86
2022/05/26 04:25:13;;;;;;;4.65;0.43;;;17.50;88.80;;;;;;5134573;27;20030;-82
2022/05/26 04:27:40;;;;;;;1.30;0.40;;;17.60;90.80;;;;;;5115832;27;20479;-84
2022/05/26 04:30:08;;;;;;;2.80;0.80;;;17.70;93.50;;;;;;5134173;27;20034;-86
2022/05/26 04:32:34;;;;;;;0.95;0.40;;;17.70;95.20;;;;;;5116814;27;20042;-86
2022/05/26 04:35:00;;;;;;;5.97;0.52;;;17.70;95.70;;;;;;5134333;27;20530;-84
2022/05/26 04:37:27;;;;;;;4.18;0.40;;;17.70;96.20;;;;;;5125360;27;20035;-83
2022/05/26 04:39:58;;;;;;;0.80;0.40;;;17.60;96.70;;;;;;5121428;27;20062;-84
2022/05/26 04:42:25;;;;;;;3.10;0.50;;;17.60;96.20;;;;;;5135467;27;20301;-84
2022/05/26 04:44:51;;;;;;;1.98;0.45;;;17.60;98.00;;;;;;5142693;27;20071;-83
2022/05/26 04:47:17;;;;;;;1.40;0.75;;;17.50;98.40;;;;;;5112605;27;20027;-83
2022/05/26 04:49:44;;;;;;;0.88;0.40;;;17.40;98.90;;;;;;5132607;27;20056;-84
2022/05/26 04:52:14;;;;;;;3.35;0.50;;;17.30;99.10;;;;;;5128045;27;20070;-83
2022/05/26 04:54:42;;;;;;;2.33;0.50;;;17.40;99.20;;;;;;5145301;27;20145;-83
2022/05/26 04:57:08;;;;;;;3.78;0.60;;;17.60;98.90;;;;;;5134157;27;20142;-84
2022/05/26 04:59:34;;;;;;;2.35;0.70;;;17.70;99.90;;;;;;5138076;27;20126;-84
2022/05/26 05:02:00;;;;;;;4.18;0.82;;;17.80;99.90;;;;;;5138970;27;20049;-86
2022/05/26 05:04:26;;;;;;;4.35;0.70;;;17.90;99.90;;;;;;5134270;27;20033;-83
2022/05/26 05:06:54;;;;;;;6.05;0.63;;;18.00;99.90;;;;;;5101855;27;20039;-82
2022/05/26 05:09:19;;;;;;;0.93;0.68;;;18.10;99.90;;;;;;5137185;27;20038;-82
2022/05/26 05:11:45;;;;;;;1.33;0.50;;;18.40;99.90;;;;;;5136501;27;20032;-83
2022/05/26 05:14:11;;;;;;;4.55;0.40;;;18.70;99.90;;;;;;5110770;27;20088;-82
2022/05/26 05:16:42;;;;;;;1.98;0.82;;;19.10;97.30;;;;;;5114693;27;20037;-84
2022/05/26 05:19:14;;;;;;;6.38;0.50;;;19.30;94.90;;;;;;5135738;27;20027;-81
2022/05/26 05:22:20;;;;;;;3.70;0.35;;;19.40;94.60;;;;;;5144258;27;20281;-82
2022/05/26 05:24:52;;;;;;;1.30;0.40;;;19.70;93.00;;;;;;5085887;27;20055;-82
2022/05/26 05:27:46;;;;;;;3.20;0.55;;;19.90;90.80;;;;;;5119733;27;20040;-83
2022/05/26 05:30:19;;;;;;;1.35;0.40;;;20.20;86.50;;;;;;5093756;27;20043;-84
2022/05/26 05:33:10;;;;;;;0.75;0.30;;;20.40;81.80;;;;;;5115206;27;20085;-84
2022/05/26 05:35:42;;;;;;;2.15;0.40;;;20.70;76.20;;;;;;5121281;27;20039;-84
2022/05/26 05:38:08;;;;;;;0.80;0.40;;;20.80;73.90;;;;;;5132736;27;20228;-84
2022/05/26 05:40:35;;;;;;;1.05;0.40;;;20.90;73.20;;;;;;5111738;27;20047;-83
2022/05/26 05:43:01;;;;;;;2.40;0.40;;;21.00;73.10;;;;;;5110181;27;20036;-83
2022/05/26 05:45:26;;;;;;;1.30;0.30;;;21.10;72.70;;;;;;5121698;27;20120;-81
2022/05/26 05:47:52;;;;;;;3.03;0.45;;;21.30;71.60;;;;;;5123011;27;20059;-83
2022/05/26 05:50:18;;;;;;;1.42;0.45;;;21.60;71.00;;;;;;5103686;27;20497;-83
2022/05/26 05:52:43;;;;;;;5.47;0.43;;;22.00;69.00;;;;;;5107313;27;20111;-83
2022/05/26 05:55:09;;;;;;;1.45;0.40;;;22.50;65.50;;;;;;5118414;27;20054;-84
2022/05/26 05:57:35;;;;;;;1.55;0.50;;;23.20;59.80;;;;;;5094279;28;20385;-84
2022/05/26 06:00:00;;;;;;;2.30;1.45;;;24.10;58.30;;;;;;5111860;28;20400;-85
2022/05/26 06:02:26;;;;;;;1.48;0.57;;;24.60;56.30;;;;;;5111965;28;20514;-84
2022/05/26 06:04:52;;;;;;;2.85;0.60;;;25.40;52.80;;;;;;5111822;28;20020;-83
2022/05/26 06:07:21;;;;;;;0.82;0.30;;;25.70;51.10;;;;;;5111729;28;20036;-84
2022/05/26 06:09:48;;;;;;;2.05;0.73;;;25.70;49.40;;;;;;5112029;28;20506;-82
2022/05/26 06:12:14;;;;;;;2.72;0.88;;;25.70;48.30;;;;;;5111465;28;20098;-84
2022/05/26 06:14:44;;;;;;;4.25;0.43;;;25.70;49.20;;;;;;5110702;28;20024;-83
2022/05/26 06:17:11;;;;;;;1.35;0.43;;;25.70;48.30;;;;;;5111926;28;20081;-84
2022/05/26 06:19:38;;;;;;;2.40;0.50;;;25.80;47.80;;;;;;5111342;28;20034;-84
2022/05/26 06:22:16;;;;;;;2.58;0.52;;;26.00;45.30;;;;;;5111253;28;20085;-84
2022/05/26 06:24:42;;;;;;;0.45;0.30;;;26.30;44.30;;;;;;5111805;28;20107;-84
2022/05/26 06:29:55;;;;;;;;;;;27.10;42.90;;;;;;5111922;28;20039;-84
2022/05/26 06:37:52;;;;;;;4.47;0.70;;;30.00;37.80;;;;;;5111243;28;20032;-85
2022/05/26 06:40:18;;;;;;;0.60;0.40;;;30.30;35.50;;;;;;5110582;28;20032;-83
2022/05/26 06:42:47;;;;;;;4.43;0.60;;;30.30;36.40;;;;;;5111264;28;20055;-84
2022/05/26 06:45:18;;;;;;;1.38;0.40;;;30.30;35.30;;;;;;5110782;28;20080;-83
2022/05/26 06:47:44;;;;;;;1.00;0.50;;;30.50;36.50;;;;;;5092472;28;20032;-84
2022/05/26 06:50:11;;;;;;;3.30;1.08;;;30.10;37.50;;;;;;5092655;28;20034;-83
2022/05/26 06:52:37;;;;;;;3.08;0.95;;;29.80;37.60;;;;;;5110247;28;20437;-83
2022/05/26 06:55:05;;;;;;;1.17;0.40;;;29.50;37.90;;;;;;5109395;28;20459;-83
2022/05/26 06:57:31;;;;;;;0.68;0.47;;;29.70;37.00;;;;;;5109065;28;20051;-82
2022/05/26 06:59:57;;;;;;;1.77;0.40;;;29.70;37.80;;;;;;5092016;28;20028;-84
2022/05/26 07:02:24;;;;;;;1.27;0.50;;;30.00;38.30;;;;;;5092632;28;20108;-83
2022/05/26 07:04:50;;;;;;;0.90;0.50;;;30.60;36.60;;;;;;5110556;28;20472;-83
2022/05/26 07:07:16;;;;;;;2.10;0.50;;;30.80;36.00;;;;;;5092501;28;20027;-83
2022/05/26 07:09:42;;;;;;;4.60;0.63;;;30.90;36.30;;;;;;5110391;28;20109;-83
2022/05/26 07:12:08;;;;;;;3.17;0.50;;;31.10;35.80;;;;;;5091985;28;20024;-83
2022/05/26 07:14:34;;;;;;;2.05;0.57;;;31.30;35.70;;;;;;5092246;28;20027;-83
2022/05/26 07:17:00;;;;;;;2.78;0.70;;;31.40;34.90;;;;;;5091898;28;20160;-83
2022/05/26 07:19:26;;;;;;;3.78;0.68;;;30.90;36.60;;;;;;5091798;28;20628;-83
2022/05/26 07:21:52;;;;;;;2.60;0.50;;;31.00;35.90;;;;;;5109867;28;20102;-82
2022/05/26 07:24:21;;;;;;;3.85;0.93;;;30.70;36.40;;;;;;5110841;28;20063;-83
2022/05/26 07:26:47;;;;;;;3.13;0.50;;;30.70;37.60;;;;;;5114246;28;20479;-83
2022/05/26 07:29:14;;;;;;;0.88;0.57;;;31.00;34.30;;;;;;5095302;28;20036;-84
2022/05/26 07:31:40;;;;;;;3.13;0.50;;;30.60;34.00;;;;;;5113899;28;20020;-83
2022/05/26 07:34:06;;;;;;;4.10;0.60;;;30.20;36.40;;;;;;5095404;28;20024;-83
2022/05/26 07:42:09;;;;;;;1.50;0.88;;;30.30;33.30;;;;;;5113635;28;20438;-84
2022/05/26 07:44:38;;;;;;;1.63;0.40;;;30.30;33.10;;;;;;5113690;28;20123;-82
2022/05/26 07:47:04;;;;;;;1.13;0.40;;;29.90;32.50;;;;;;5113575;28;20027;-83
2022/05/26 07:49:38;;;;;;;2.08;0.65;;;30.10;33.60;;;;;;5112909;28;20011;-83
2022/05/26 07:52:04;;;;;;;2.58;0.70;;;30.40;33.60;;;;;;5095015;28;20028;-83
2022/05/26 07:54:30;;;;;;;10.15;1.20;;;30.90;32.80;;;;;;5113590;28;20023;-83
2022/05/26 07:56:57;;;;;;;4.10;0.50;;;31.20;32.40;;;;;;5113609;28;20453;-82
2022/05/26 07:59:23;;;;;;;1.23;0.60;;;31.30;31.00;;;;;;5113200;28;20067;-83
2022/05/26 08:01:49;;;;;;;1.73;0.55;;;31.30;32.40;;;;;;5113254;28;20043;-84
2022/05/26 08:04:16;;;;;;;0.88;0.40;;;31.40;31.80;;;;;;5113262;28;20388;-83
2022/05/26 08:06:46;;;;;;;3.40;0.68;;;31.00;31.00;;;;;;5113157;28;20024;-83
2022/05/26 08:09:13;;;;;;;4.60;0.60;;;30.90;31.30;;;;;;5094717;28;20122;-82
2022/05/26 08:11:38;;;;;;;2.63;0.60;;;30.70;30.10;;;;;;5094708;28;20068;-82
2022/05/26 08:14:04;;;;;;;2.97;0.80;;;30.60;30.00;;;;;;5094567;28;20062;-83
2022/05/26 08:16:31;;;;;;;0.95;0.45;;;30.80;30.20;;;;;;5113082;28;20139;-82
2022/05/26 08:18:57;;;;;;;2.28;0.40;;;31.20;30.00;;;;;;5112828;28;20026;-84
2022/05/26 08:21:23;;;;;;;6.47;0.50;;;31.30;30.10;;;;;;5112804;28;20019;-83
2022/05/26 08:23:49;;;;;;;4.15;0.65;;;31.50;31.40;;;;;;5116412;27;20035;-83
2022/05/26 08:26:15;;;;;;;2.40;0.50;;;31.60;29.70;;;;;;5115086;27;20728;-82
2022/05/26 08:28:42;;;;;;;1.15;0.60;;;31.70;30.00;;;;;;5112895;27;20040;-82
2022/05/26 08:31:10;;;;;;;4.00;0.60;;;31.60;29.70;;;;;;5109761;27;20050;-82
2022/05/26 08:33:37;;;;;;;2.03;0.70;;;31.50;30.00;;;;;;5120375;27;20027;-84
2022/05/26 08:36:07;;;;;;;3.40;0.70;;;31.60;30.40;;;;;;5130770;27;20488;-83
2022/05/26 08:38:33;;;;;;;2.35;0.82;;;31.70;29.90;;;;;;5135268;27;20035;-83
2022/05/26 08:40:59;;;;;;;0.73;0.50;;;31.70;29.20;;;;;;5135132;27;20050;-84
2022/05/26 08:43:35;;;;;;;1.88;0.70;;;31.60;29.70;;;;;;5135994;27;20027;-83
2022/05/26 08:46:06;;;;;;;1.73;0.70;;;31.40;29.60;;;;;;5141011;27;20043;-84
2022/05/26 08:48:49;;;;;;;3.10;0.40;;;31.40;30.00;;;;;;5114210;27;20131;-82
2022/05/26 08:51:34;;;;;;;0.65;0.40;;;31.50;28.70;;;;;;5117899;27;20040;-82
2022/05/26 08:54:02;;;;;;;1.40;0.60;;;31.60;29.30;;;;;;5115053;27;20039;-82
2022/05/26 08:56:28;;;;;;;3.55;0.52;;;31.70;30.20;;;;;;5128955;27;20047;-82
2022/05/26 08:59:08;;;;;;;1.17;0.40;;;31.80;30.30;;;;;;5129319;27;20039;-82
2022/05/26 09:01:34;;;;;;;1.25;0.60;;;31.70;30.90;;;;;;5131738;27;20077;-82
2022/05/26 09:04:01;;;;;;;1.05;0.60;;;31.70;31.40;;;;;;5135724;27;20506;-81
2022/05/26 09:06:27;;;;;;;3.97;0.70;;;31.60;31.80;;;;;;5138986;27;20027;-82
2022/05/26 09:14:38;;;;;;;3.92;0.68;;;31.50;31.70;;;;;;5129954;27;20130;-82
2022/05/26 09:17:06;;;;;;;3.75;0.55;;;31.30;32.20;;;;;;5133693;27;20041;-82
2022/05/26 09:19:42;;;;;;;1.88;0.50;;;31.20;32.40;;;;;;5142632;27;20031;-82
2022/05/26 09:22:24;;;;;;;2.40;0.60;;;31.50;33.70;;;;;;5134314;27;20238;-83
2022/05/26 09:24:50;;;;;;;1.75;0.73;;;31.20;32.90;;;;;;5128717;27;20120;-82
2022/05/26 09:27:38;;;;;;;1.40;0.57;;;31.40;33.90;;;;;;5124012;27;20063;-84
2022/05/26 09:30:29;;;;;;;3.40;0.63;;;31.60;32.00;;;;;;5119877;27;20031;-83
2022/05/26 09:32:56;;;;;;;3.80;0.60;;;32.00;32.40;;;;;;5106888;27;20031;-83
2022/05/26 09:35:23;;;;;;;3.80;0.68;;;31.80;32.10;;;;;;5112371;27;20460;-83
2022/05/26 09:37:58;;;;;;;6.15;0.60;;;32.00;31.20;;;;;;5126367;27;20088;-83
2022/05/26 09:40:30;;;;;;;1.73;0.60;;;32.10;30.40;;;;;;5105145;27;20040;-83
2022/05/26 09:43:02;;;;;;;1.95;0.65;;;32.00;29.90;;;;;;5118278;27;20354;-83
2022/05/26 09:45:41;;;;;;;3.15;0.70;;;31.90;30.70;;;;;;5096060;27;20518;-83
2022/05/26 09:48:26;;;;;;;1.20;0.47;;;31.60;30.50;;;;;;5129949;27;20591;-83
2022/05/26 09:51:02;;;;;;;4.38;0.80;;;31.60;30.00;;;;;;5125006;27;20032;-83
2022/05/26 09:53:41;;;;;;;0.80;0.50;;;31.70;30.20;;;;;;5097143;27;20542;-82
2022/05/26 09:56:10;;;;;;;3.95;0.50;;;31.90;30.00;;;;;;5126287;27;20845;-83
2022/05/26 09:58:44;;;;;;;5.20;0.52;;;31.90;30.10;;;;;;5124958;27;20127;-83
2022/05/26 10:01:28;;;;;;;1.75;0.52;;;31.60;29.00;;;;;;5110659;27;20500;-83
2022/05/26 10:04:32;;;;;;;1.63;0.60;;;30.90;29.00;;;;;;5139575;27;20050;-82
2022/05/26 10:07:32;;;;;;;1.75;0.50;;;30.20;30.70;;;;;;5131330;27;20052;-82
2022/05/26 10:10:13;;;;;;;1.17;0.40;;;29.80;30.80;;;;;;5087744;27;20066;-83
2022/05/26 10:13:10;;;;;;;2.08;0.63;;;29.40;30.10;;;;;;5112538;27;20091;-83
2022/05/26 10:15:49;;;;;;;1.70;0.60;;;29.00;30.50;;;;;;5120744;27;20106;-82
2022/05/26 10:18:51;;;;;;;3.97;0.60;;;28.70;32.10;;;;;;5130851;27;20050;-83
2022/05/26 10:21:41;;;;;;;3.10;0.55;;;28.60;32.10;;;;;;5129310;27;20043;-81
2022/05/26 10:24:31;;;;;;;3.17;0.70;;;28.30;32.40;;;;;;5128429;27;20057;-82
2022/05/26 10:27:02;;;;;;;1.92;0.45;;;28.00;32.50;;;;;;5116005;27;20110;-82
2022/05/26 10:29:37;;;;;;;1.65;0.40;;;27.80;31.60;;;;;;5109183;28;20060;-82
2022/05/26 10:32:37;;;;;;;2.08;0.50;;;27.60;32.90;;;;;;5110345;28;20103;-83
2022/05/26 10:35:26;;;;;;;7.90;0.52;;;27.50;33.60;;;;;;5110195;28;20028;-82
2022/05/26 10:38:01;;;;;;;3.25;0.50;;;27.40;32.90;;;;;;5109140;28;20028;-83
2022/05/26 10:40:50;;;;;;;4.68;0.50;;;27.30;33.60;;;;;;5110520;28;20161;-83
2022/05/26 10:43:27;;;;;;;3.13;0.50;;;27.20;32.60;;;;;;5110473;28;20122;-83
2022/05/26 10:45:54;;;;;;;3.70;0.80;;;27.10;34.00;;;;;;5110665;28;20518;-83
2022/05/26 10:48:42;;;;;;;4.50;0.50;;;26.90;33.70;;;;;;5110850;28;20074;-82
2022/05/26 10:51:18;;;;;;;1.50;0.47;;;26.90;34.30;;;;;;5110430;28;20541;-82
2022/05/26 10:54:03;;;;;;;1.33;0.40;;;26.80;34.90;;;;;;5110460;28;20024;-83
2022/05/26 10:56:31;;;;;;;4.35;0.50;;;26.90;35.50;;;;;;5110584;28;20042;-82
2022/05/26 10:59:19;;;;;;;3.97;0.80;;;26.90;34.30;;;;;;5110614;28;20024;-83
2022/05/26 11:02:05;;;;;;;5.38;0.65;;;26.80;32.80;;;;;;5113486;28;20069;-82
2022/05/26 11:05:05;;;;;;;4.72;0.88;;;26.60;35.20;;;;;;5114313;28;20043;-82
2022/05/26 11:07:50;;;;;;;2.88;0.50;;;26.50;36.50;;;;;;5104003;28;20510;-82
2022/05/26 11:10:34;;;;;;;4.72;0.50;;;26.50;36.20;;;;;;5114232;28;20617;-82
2022/05/26 11:13:20;;;;;;;4.47;0.30;;;26.50;35.60;;;;;;5113442;28;20381;-82
2022/05/26 11:18:53;;;;;;;2.78;0.50;;;26.70;35.80;;;;;;5114628;28;20054;-82
2022/05/26 11:21:21;;;;;;;2.35;0.63;;;26.80;35.70;;;;;;5113075;28;20080;-83
2022/05/26 11:23:47;;;;;;;1.48;0.93;;;26.80;35.40;;;;;;5114314;28;20054;-81
2022/05/26 11:26:23;;;;;;;1.67;0.40;;;26.80;35.20;;;;;;5112947;28;20028;-83
2022/05/26 11:28:58;;;;;;;6.13;0.70;;;26.80;35.00;;;;;;5113195;28;20044;-82
2022/05/26 11:37:23;;;;;;;2.28;0.47;;;26.70;35.60;;;;;;5114579;28;20034;-82
2022/05/26 11:39:54;;;;;;;3.40;0.50;;;26.80;36.30;;;;;;5112950;28;20031;-82
2022/05/26 11:42:29;;;;;;;1.23;0.50;;;26.90;36.50;;;;;;5113782;28;20134;-82
2022/05/26 11:45:22;;;;;;;3.38;0.80;;;27.00;37.20;;;;;;5112730;28;20071;-82
2022/05/26 11:47:50;;;;;;;8.35;0.50;;;27.00;36.10;;;;;;5114158;28;20077;-83
2022/05/26 11:50:43;;;;;;;1.17;0.55;;;27.00;35.60;;;;;;5112978;28;20016;-82
2022/05/26 11:53:32;;;;;;;2.58;0.60;;;26.80;36.10;;;;;;5114233;28;20055;-83
2022/05/26 11:56:04;;;;;;;2.75;0.40;;;26.50;36.70;;;;;;5113689;28;20099;-83
2022/05/26 11:58:42;;;;;;;7.85;0.63;;;26.60;35.70;;;;;;5113387;28;20027;-82
2022/05/26 12:01:21;;;;;;;5.57;0.60;;;26.60;35.90;;;;;;5112820;28;20031;-82
2022/05/26 12:03:53;;;;;;;3.35;0.50;;;26.50;36.20;;;;;;5113628;28;20045;-83
2022/05/26 12:06:37;;;;;;;0.50;0.30;;;26.40;36.80;;;;;;5112526;28;20812;-85
2022/05/26 12:09:11;;;;;;;2.75;0.50;;;26.60;37.50;;;;;;5113490;28;20055;-82
2022/05/26 12:11:59;;;;;;;1.58;0.45;;;26.60;37.20;;;;;;5112822;28;20076;-83
2022/05/26 12:14:33;;;;;;;3.08;0.50;;;26.60;36.20;;;;;;5112219;28;20030;-83
2022/05/26 12:17:36;;;;;;;2.75;0.63;;;26.50;36.20;;;;;;5113862;28;20042;-83
2022/05/26 12:20:25;;;;;;;3.38;0.40;;;26.60;36.80;;;;;;5113399;28;20035;-83
2022/05/26 12:22:50;;;;;;;1.67;0.52;;;26.50;36.60;;;;;;5106151;28;20047;-83
2022/05/26 12:25:29;;;;;;;1.00;0.40;;;26.50;36.40;;;;;;5111885;28;20507;-81
2022/05/26 12:28:13;;;;;;;9.13;0.50;;;26.60;36.00;;;;;;5111815;28;20020;-83
2022/05/26 12:30:44;;;;;;;2.10;0.40;;;26.50;36.40;;;;;;5110361;28;20032;-83
2022/05/26 12:33:19;;;;;;;0.60;0.30;;;26.30;38.00;;;;;;5110461;28;20028;-82
2022/05/26 12:36:06;;;;;;;2.15;0.75;;;26.20;36.20;;;;;;5111749;28;20027;-81
2022/05/26 12:38:41;;;;;;;4.15;0.40;;;26.10;36.90;;;;;;5112773;28;20022;-82
2022/05/26 12:41:17;;;;;;;3.63;0.47;;;26.00;36.10;;;;;;5112786;28;20461;-85
2022/05/26 12:44:01;;;;;;;3.35;0.40;;;25.90;37.10;;;;;;5112360;28;20043;-83
2022/05/26 12:46:52;;;;;;;1.95;0.50;;;26.00;38.30;;;;;;5114532;28;20027;-84
2022/05/26 12:49:33;;;;;;;0.70;0.40;;;26.10;37.60;;;;;;5113359;28;20023;-83
2022/05/26 12:52:17;;;;;;;1.15;0.40;;;26.20;37.00;;;;;;5114806;28;20019;-83
2022/05/26 12:54:49;;;;;;;1.70;0.50;;;26.20;35.70;;;;;;5114355;28;20028;-83
2022/05/26 12:57:22;;;;;;;3.70;0.50;;;26.20;36.80;;;;;;5113082;28;20492;-84
2022/05/26 12:59:48;;;;;;;1.05;0.40;;;26.30;37.10;;;;;;5112945;28;20085;-82
2022/05/26 13:02:16;;;;;;;3.10;0.95;;;26.30;36.40;;;;;;5112911;28;20031;-83
2022/05/26 13:04:43;;;;;;;3.40;0.30;;;26.40;36.70;;;;;;5111309;28;20049;-82
2022/05/26 13:07:12;;;;;;;1.65;0.50;;;26.50;36.30;;;;;;5112537;28;20035;-83
2022/05/26 13:09:47;;;;;;;3.33;0.40;;;26.50;35.60;;;;;;5112836;28;20020;-83
2022/05/26 13:12:22;;;;;;;4.40;0.50;;;26.60;35.40;;;;;;5112613;28;20106;-82
2022/05/26 13:14:58;;;;;;;3.97;0.40;;;26.70;36.00;;;;;;5111836;28;20119;-82
2022/05/26 13:17:26;;;;;;;0.80;0.38;;;26.70;36.30;;;;;;5110153;28;20055;-83
2022/05/26 13:20:01;;;;;;;2.17;0.52;;;26.70;35.90;;;;;;5110739;28;20076;-82
2022/05/26 13:22:35;;;;;;;6.03;0.57;;;26.60;36.40;;;;;;5110635;28;20054;-82
2022/05/26 13:25:05;;;;;;;2.65;0.57;;;26.70;36.90;;;;;;5110861;28;20031;-82
2022/05/26 13:27:46;;;;;;;2.40;0.50;;;26.70;38.00;;;;;;5111557;28;20040;-81
2022/05/26 13:33:08;;;;;;;2.13;0.70;;;26.80;38.30;;;;;;5111950;28;20068;-83
2022/05/26 13:35:41;;;;;;;1.65;0.60;;;26.80;38.70;;;;;;5111563;28;20027;-82
2022/05/26 13:38:28;;;;;;;3.42;0.55;;;26.80;38.20;;;;;;5110539;28;20024;-82
2022/05/26 13:40:58;;;;;;;1.35;0.35;;;26.80;36.80;;;;;;5111608;28;20047;-83
2022/05/26 13:43:25;;;;;;;3.28;0.50;;;26.90;37.30;;;;;;5111449;28;20042;-81
2022/05/26 13:45:53;;;;;;;1.05;0.40;;;26.90;37.70;;;;;;5111216;28;20023;-81
2022/05/26 13:48:38;;;;;;;4.95;0.47;;;26.90;37.70;;;;;;5110331;28;20036;-82
2022/05/26 13:51:13;;;;;;;2.05;0.50;;;26.60;37.60;;;;;;5111303;28;20044;-82
2022/05/26 13:53:51;;;;;;;1.00;0.50;;;26.50;38.50;;;;;;5111109;28;20032;-82
2022/05/26 13:56:25;;;;;;;2.38;0.40;;;26.40;39.30;;;;;;5111614;28;20028;-83
2022/05/26 13:58:54;;;;;;;1.00;0.70;;;26.50;39.30;;;;;;5110186;28;20459;-83